Time;durP1;ratioP1;P1;durP2;ratioP2;P2;SDS_P1;SDS_P2;PMS_P1;PMS_P2;Temp;Humidity;BMP_temperature;BMP_pressure;BME280_temperature;BME280_humidity;BME280_pressure;Samples;Min_cycle;Max_cycle;Signal;HPM_P1;HPM_P2
2023/06/08 00:00:33;;;;;;;;;;;;;;;19.48;85.86;100340.44;5423389;32;35525;-66
2023/06/08 00:03:38;;;;;;;;;;;;;;;19.53;85.73;100339.25;5414145;32;35821;-66
2023/06/08 00:06:41;;;;;;;;;;;;;;;19.57;85.83;100335.34;5415328;32;35177;-69
2023/06/08 00:09:43;;;;;;;;;;;;;;;19.73;85.89;100327.91;5429201;32;35071;-66
2023/06/08 00:12:45;;;;;;;;;;;;;;;20.18;81.65;100326.09;5431675;32;35080;-66
2023/06/08 00:15:47;;;;;;;;;;;;;;;20.13;80.42;100328.28;5428613;32;34741;-66
2023/06/08 00:18:50;;;;;;;;;;;;;;;19.33;86.18;100328.31;5424981;32;34564;-70
2023/06/08 00:21:52;;;;;;;;;;;;;;;19.45;86.76;100327.38;5433711;32;35011;-66
2023/06/08 00:24:54;;;;;;;;;;;;;;;19.76;84.18;100325.00;5412141;32;34731;-65
2023/06/08 00:27:56;;;;;;;;;;;;;;;19.47;85.01;100328.09;5429328;32;34943;-67
2023/06/08 00:30:58;;;;;;;;;;;;;;;19.06;87.18;100320.56;5414397;32;35321;-66
2023/06/08 00:34:00;;;;;;;;;;;;;;;19.62;84.73;100318.06;5430639;32;34682;-68
2023/06/08 00:37:02;;;;;;;;;;;;;;;19.23;86.86;100311.31;5422097;32;34875;-67
2023/06/08 00:40:07;;;;;;;;;;;;;;;19.97;82.33;100319.81;5424195;32;34865;-68
2023/06/08 00:43:10;;;;;;;;;;;;;;;20.05;82.00;100314.72;5431208;32;35070;-66
2023/06/08 00:46:15;;;;;;;;;;;;;;;19.36;86.63;100317.41;5425683;32;34520;-69
2023/06/08 00:49:17;;;;;;;;;;;;;;;19.59;86.66;100317.47;5417765;32;35053;-67
2023/06/08 00:52:20;;;;;;;;;;;;;;;19.48;85.63;100316.44;5412632;32;35198;-65
2023/06/08 00:55:24;;;;;;;;;;;;;;;20.28;81.95;100315.50;5430049;32;34738;-66
2023/06/08 00:58:28;;;;;;;;;;;;;;;20.23;80.39;100317.72;5426561;32;34529;-65
2023/06/08 01:01:31;;;;;;;;;;;;;;;20.04;82.07;100313.00;5411725;32;35031;-69
2023/06/08 01:04:35;;;;;;;;;;;;;;;20.00;81.34;100317.72;5417180;32;34238;-64
2023/06/08 01:08:01;;;;;;;;;;;;;;;19.46;85.76;100323.72;5411588;32;35251;-65
2023/06/08 01:11:15;;;;;;;;;;;;;;;19.60;85.47;100324.50;5401316;32;34380;-65
2023/06/08 01:14:38;;;;;;;;;;;;;;;19.32;85.14;100325.72;5414077;32;35639;-68
2023/06/08 01:17:40;;;;;;;;;;;;;;;19.42;85.39;100327.59;5425949;32;35143;-67
2023/06/08 01:20:49;;;;;;;;;;;;;;;19.45;86.08;100327.38;5409778;32;34929;-68
2023/06/08 01:24:00;;;;;;;;;;;;;;;19.59;83.72;100331.66;5413544;32;34242;-66
2023/06/08 01:27:06;;;;;;;;;;;;;;;19.56;86.11;100325.66;5424323;32;35397;-68
2023/06/08 01:30:08;;;;;;;;;;;;;;;20.12;82.05;100331.06;5414462;32;34685;-65
2023/06/08 01:33:18;;;;;;;;;;;;;;;19.41;85.49;100331.22;5425136;32;35369;-68
2023/06/08 01:36:33;;;;;;;;;;;;;;;19.92;82.69;100322.00;5431787;32;35028;-67
2023/06/08 01:39:43;;;;;;;;;;;;;;;20.39;80.53;100322.66;5416626;32;35705;-65
2023/06/08 01:42:46;;;;;;;;;;;;;;;20.25;80.98;100329.13;5413543;32;35278;-65
2023/06/08 01:45:49;;;;;;;;;;;;;;;19.78;83.61;100328.41;5411984;32;34740;-67
2023/06/08 01:48:51;;;;;;;;;;;;;;;19.78;82.15;100328.41;5428857;32;35149;-69
2023/06/08 01:51:53;;;;;;;;;;;;;;;19.56;85.07;100333.66;5414145;32;35586;-67
2023/06/08 01:54:55;;;;;;;;;;;;;;;19.52;85.57;100333.06;5411713;32;35022;-65
2023/06/08 01:57:57;;;;;;;;;;;;;;;20.09;82.80;100331.31;5415252;32;34961;-67
2023/06/08 02:00:59;;;;;;;;;;;;;;;19.76;83.61;100314.31;5425273;32;34864;-65
2023/06/08 02:04:01;;;;;;;;;;;;;;;20.13;81.65;100322.09;5430104;32;34782;-65
2023/06/08 02:07:03;;;;;;;;;;;;;;;20.13;82.37;100325.59;5426825;32;34627;-67
2023/06/08 02:10:06;;;;;;;;;;;;;;;20.58;79.87;100327.38;5429053;32;34693;-67
2023/06/08 02:13:08;;;;;;;;;;;;;;;20.80;78.51;100321.97;5425519;32;34824;-69
2023/06/08 02:16:10;;;;;;;;;;;;;;;19.84;82.73;100321.75;5426654;32;34500;-66
2023/06/08 02:19:14;;;;;;;;;;;;;;;20.24;79.60;100322.94;5415459;32;34311;-66
2023/06/08 02:22:16;;;;;;;;;;;;;;;20.39;79.64;100322.66;5428692;32;34420;-65
2023/06/08 02:25:18;;;;;;;;;;;;;;;19.97;82.78;100323.31;5429492;32;35355;-65
2023/06/08 02:28:20;;;;;;;;;;;;;;;20.00;80.93;100330.22;5432394;32;34735;-70
2023/06/08 02:31:25;;;;;;;;;;;;;;;20.03;80.66;100319.31;5425541;32;34649;-69
2023/06/08 02:34:27;;;;;;;;;;;;;;;19.90;82.96;100322.13;5430723;32;35093;-68
2023/06/08 02:37:29;;;;;;;;;;;;;;;19.74;83.99;100322.44;5426937;32;34178;-65
2023/06/08 02:40:31;;;;;;;;;;;;;;;19.87;83.44;100326.81;5411520;32;35500;-67
2023/06/08 02:43:35;;;;;;;;;;;;;;;20.10;81.51;100315.19;5413456;32;35592;-65
2023/06/08 02:46:38;;;;;;;;;;;;;;;19.71;83.97;100321.87;5429425;32;35437;-67
2023/06/08 02:49:40;;;;;;;;;;;;;;;19.72;84.17;100308.41;5425594;32;34296;-66
2023/06/08 02:52:42;;;;;;;;;;;;;;;19.79;83.90;100318.59;5411704;32;34609;-67
2023/06/08 02:55:44;;;;;;;;;;;;;;;19.68;84.13;100317.59;5429434;32;35418;-67
2023/06/08 02:58:46;;;;;;;;;;;;;;;19.75;84.14;100310.81;5419834;32;35414;-67
2023/06/08 03:01:54;;;;;;;;;;;;;;;19.41;86.85;100315.22;5429243;32;35068;-67
2023/06/08 03:04:58;;;;;;;;;;;;;;;19.41;85.34;100283.25;5426794;32;35326;-68
2023/06/08 03:08:00;;;;;;;;;;;;;;;19.71;84.25;100305.88;5429679;32;34783;-66
2023/06/08 03:11:02;;;;;;;;;;;;;;;19.75;82.82;100309.97;5425658;32;35296;-66
2023/06/08 03:14:04;;;;;;;;;;;;;;;20.40;80.06;100306.50;5429066;32;35515;-65
2023/06/08 03:17:10;;;;;;;;;;;;;;;20.36;80.05;100312.25;5431200;32;35245;-65
2023/06/08 03:20:12;;;;;;;;;;;;;;;19.83;80.84;100310.19;5422400;32;34263;-66
2023/06/08 03:23:15;;;;;;;;;;;;;;;20.00;82.04;100307.06;5430119;32;34938;-67
2023/06/08 03:26:17;;;;;;;;;;;;;;;20.45;79.57;100306.19;5409796;32;34157;-68
2023/06/08 03:29:19;;;;;;;;;;;;;;;19.57;84.21;100308.69;5430907;32;34771;-65
2023/06/08 03:32:21;;;;;;;;;;;;;;;19.90;81.89;100310.56;5428975;32;34664;-66
2023/06/08 03:35:23;;;;;;;;;;;;;;;20.09;81.83;100309.97;5428837;32;34926;-67
2023/06/08 03:38:25;;;;;;;;;;;;;;;20.34;79.65;100309.69;5414262;32;34965;-65
2023/06/08 03:41:27;;;;;;;;;;;;;;;20.14;80.81;100318.44;5424789;32;36892;-68
2023/06/08 03:44:29;;;;;;;;;;;;;;;20.19;80.80;100306.44;5430735;32;35568;-65
2023/06/08 03:47:31;;;;;;;;;;;;;;;19.75;81.66;100317.97;5428135;32;35451;-68
2023/06/08 03:50:33;;;;;;;;;;;;;;;20.01;80.89;100313.25;5429344;32;34681;-66
2023/06/08 03:53:35;;;;;;;;;;;;;;;20.00;81.54;100317.72;5430036;32;35059;-66
2023/06/08 03:56:37;;;;;;;;;;;;;;;20.22;78.86;100311.53;5423743;32;34097;-65
2023/06/08 03:59:39;;;;;;;;;;;;;;;20.34;79.69;100316.84;5431430;32;34990;-68
2023/06/08 04:02:41;;;;;;;;;;;;;;;20.10;79.22;100317.88;5427576;32;35152;-67
2023/06/08 04:05:43;;;;;;;;;;;;;;;19.78;81.88;100315.06;5430839;32;34288;-65
2023/06/08 04:08:45;;;;;;;;;;;;;;;20.08;80.68;100314.44;5427210;32;35795;-66
2023/06/08 04:11:47;;;;;;;;;;;;;;;19.85;81.86;100313.62;5427212;32;34877;-66
2023/06/08 04:14:49;;;;;;;;;;;;;;;20.06;81.21;100304.87;5429625;32;34258;-68
2023/06/08 04:17:52;;;;;;;;;;;;;;;20.32;79.64;100319.63;5427597;32;34715;-67
2023/06/08 04:20:54;;;;;;;;;;;;;;;20.32;79.67;100316.13;5413399;32;34892;-68
2023/06/08 04:23:55;;;;;;;;;;;;;;;19.98;80.87;100324.16;5426576;32;35558;-65
2023/06/08 04:26:57;;;;;;;;;;;;;;;20.34;79.27;100314.16;5424574;32;34904;-65
2023/06/08 04:29:59;;;;;;;;;;;;;;;20.87;77.58;100317.84;5414638;32;36577;-66
2023/06/08 04:33:01;;;;;;;;;;;;;;;20.59;78.66;100318.41;5414745;32;34924;-67
2023/06/08 04:36:04;;;;;;;;;;;;;;;21.06;76.30;100318.00;5428831;32;35022;-69
2023/06/08 04:39:08;;;;;;;;;;;;;;;20.75;76.87;100324.19;5426109;32;34967;-65
2023/06/08 04:42:10;;;;;;;;;;;;;;;20.21;78.71;100325.84;5428566;32;34746;-67
2023/06/08 04:45:12;;;;;;;;;;;;;;;20.67;77.51;100323.94;5425942;32;34791;-66
2023/06/08 04:48:15;;;;;;;;;;;;;;;20.61;77.69;100325.31;5431805;32;34693;-69
2023/06/08 04:51:17;;;;;;;;;;;;;;;20.85;75.91;100318.91;5412193;32;35669;-67
2023/06/08 04:54:21;;;;;;;;;;;;;;;20.97;75.49;100325.91;5416190;32;35162;-68
2023/06/08 04:57:23;;;;;;;;;;;;;;;20.68;76.30;100323.00;5429478;32;35460;-69
2023/06/08 05:00:25;;;;;;;;;;;;;;;20.74;76.66;100327.84;5426025;32;35636;-64
2023/06/08 05:03:27;;;;;;;;;;;;;;;20.46;77.49;100314.06;5431035;32;34986;-68
2023/06/08 05:06:30;;;;;;;;;;;;;;;20.88;76.03;100329.38;5412201;32;34708;-66
2023/06/08 05:09:32;;;;;;;;;;;;;;;20.70;76.03;100324.56;5430375;32;35498;-66
2023/06/08 05:12:33;;;;;;;;;;;;;;;20.99;74.92;100332.81;5410700;32;35058;-67
2023/06/08 05:15:35;;;;;;;;;;;;;;;21.32;73.53;100339.88;5422269;32;35419;-68
2023/06/08 05:18:37;;;;;;;;;;;;;;;21.20;74.19;100332.88;5408871;32;34249;-67
2023/06/08 05:21:40;;;;;;;;;;;;;;;21.77;71.46;100339.59;5420869;32;34847;-65
2023/06/08 05:24:42;;;;;;;;;;;;;;;21.29;71.88;100349.97;5414049;32;34722;-68
2023/06/08 05:27:44;;;;;;;;;;;;;;;21.39;72.96;100345.56;5426078;32;34785;-68
2023/06/08 05:30:46;;;;;;;;;;;;;;;21.29;72.74;100344.63;5398028;32;35485;-66
2023/06/08 05:33:48;;;;;;;;;;;;;;;21.15;74.37;100342.25;5421993;32;35424;-66
2023/06/08 05:36:50;;;;;;;;;;;;;;;20.84;74.19;100334.09;5423694;32;34798;-64
2023/06/08 05:39:52;;;;;;;;;;;;;;;20.80;75.75;100338.87;5421376;32;35479;-66
2023/06/08 05:42:54;;;;;;;;;;;;;;;20.89;74.77;100331.91;5419585;32;34220;-67
2023/06/08 05:45:56;;;;;;;;;;;;;;;22.11;69.37;100329.50;5424163;32;34320;-67
2023/06/08 05:48:58;;;;;;;;;;;;;;;21.49;70.95;100327.72;5421845;32;34267;-68
2023/06/08 05:52:00;;;;;;;;;;;;;;;21.41;72.69;100335.56;5429519;32;34228;-65
2023/06/08 05:55:02;;;;;;;;;;;;;;;21.51;71.37;100333.81;5420453;32;36006;-69
2023/06/08 05:58:05;;;;;;;;;;;;;;;21.28;71.92;100338.44;5425225;32;35613;-69
2023/06/08 06:01:07;;;;;;;;;;;;;;;21.41;72.21;100335.56;5400393;32;37485;-69
2023/06/08 06:04:09;;;;;;;;;;;;;;;21.36;73.40;100329.75;5403278;32;34854;-63
2023/06/08 06:07:33;;;;;;;;;;;;;;;21.85;70.96;100330.91;5410820;32;35705;-70
2023/06/08 06:10:35;;;;;;;;;;;;;;;20.54;75.74;100327.66;5413092;32;34208;-70
2023/06/08 06:13:39;;;;;;;;;;;;;;;21.47;72.34;100336.88;5422017;32;35555;-66
2023/06/08 06:16:42;;;;;;;;;;;;;;;21.27;73.35;100336.72;5417798;32;35907;-65
2023/06/08 06:20:08;;;;;;;;;;;;;;;20.74;74.78;100334.03;5426122;32;34539;-65
2023/06/08 06:23:10;;;;;;;;;;;;;;;21.21;74.37;100334.56;5407444;32;35758;-66
2023/06/08 06:26:12;;;;;;;;;;;;;;;20.98;75.12;100339.13;5411723;32;33943;-65
2023/06/08 06:29:24;;;;;;;;;;;;;;;21.53;73.61;100341.69;5418695;32;35670;-66
2023/06/08 06:32:26;;;;;;;;;;;;;;;21.93;70.70;100336.41;5410540;32;34288;-66
2023/06/08 06:35:28;;;;;;;;;;;;;;;22.43;67.72;100337.34;5421495;32;35564;-69
2023/06/08 06:38:30;;;;;;;;;;;;;;;21.95;70.32;100344.31;5427665;32;34190;-68
2023/06/08 06:41:32;;;;;;;;;;;;;;;21.94;69.89;100339.94;5419179;32;35551;-64
2023/06/08 06:44:34;;;;;;;;;;;;;;;22.09;70.50;100333.25;5425228;32;33124;-65
2023/06/08 06:47:39;;;;;;;;;;;;;;;21.94;69.98;100339.94;5421690;32;35494;-67
2023/06/08 06:50:42;;;;;;;;;;;;;;;22.63;67.90;100332.03;5426025;32;35302;-64
2023/06/08 06:53:44;;;;;;;;;;;;;;;21.91;69.57;100349.09;5423763;32;34021;-63
2023/06/08 06:56:46;;;;;;;;;;;;;;;22.28;68.25;100345.87;5426468;32;35872;-72
2023/06/08 06:59:50;;;;;;;;;;;;;;;22.07;68.39;100341.41;5427075;32;35204;-64
2023/06/08 07:02:52;;;;;;;;;;;;;;;22.16;69.20;100340.66;5425995;32;34358;-67
2023/06/08 07:05:57;;;;;;;;;;;;;;;22.22;69.54;100341.94;5404778;32;34921;-67
2023/06/08 07:09:00;;;;;;;;;;;;;;;22.74;66.76;100333.72;5385777;32;853005;-67
2023/06/08 07:12:02;;;;;;;;;;;;;;;21.90;69.81;100344.72;5410095;32;34421;-66
2023/06/08 07:15:17;;;;;;;;;;;;;;;22.38;67.61;100334.22;5418388;32;34376;-64
2023/06/08 07:18:19;;;;;;;;;;;;;;;22.18;69.85;100337.81;5407251;32;34226;-64
2023/06/08 07:21:24;;;;;;;;;;;;;;;21.79;71.24;100342.13;5408662;32;34383;-64
2023/06/08 07:24:36;;;;;;;;;;;;;;;22.04;70.62;100330.97;5415909;32;34969;-66
2023/06/08 07:27:58;;;;;;;;;;;;;;;21.85;71.37;100336.25;5424418;32;35848;-65
2023/06/08 07:31:00;;;;;;;;;;;;;;;22.61;68.36;100334.84;5409962;32;34132;-63
2023/06/08 07:34:02;;;;;;;;;;;;;;;22.72;66.78;100328.50;5423331;32;34582;-65
2023/06/08 07:37:05;;;;;;;;;;;;;;;21.89;70.51;100337.66;5402609;32;35203;-63
2023/06/08 07:40:11;;;;;;;;;;;;;;;22.38;69.27;100338.72;5417536;32;34883;-64
2023/06/08 07:43:13;;;;;;;;;;;;;;;21.79;72.08;100339.47;5410133;32;34355;-68
2023/06/08 07:46:16;;;;;;;;;;;;;;;21.93;71.79;100338.25;5420452;32;33144;-67
2023/06/08 07:49:18;;;;;;;;;;;;;;;22.44;68.47;100338.19;5425030;32;34504;-65
2023/06/08 07:52:20;;;;;;;;;;;;;;;22.54;67.78;100333.72;5418465;32;35354;-66
2023/06/08 07:55:22;;;;;;;;;;;;;;;23.03;66.25;100331.09;5417001;32;37484;-67
2023/06/08 07:58:24;;;;;;;;;;;;;;;22.36;69.58;100330.00;5425056;32;32873;-64
2023/06/08 08:01:26;;;;;;;;;;;;;;;22.98;66.94;100324.31;5404953;32;34683;-66
2023/06/08 08:04:28;;;;;;;;;;;;;;;22.80;67.74;100333.16;5423795;32;35559;-66
2023/06/08 08:07:33;;;;;;;;;;;;;;;22.58;67.15;100337.78;5424451;32;34147;-65
2023/06/08 08:10:35;;;;;;;;;;;;;;;23.31;64.77;100335.56;5424299;32;34240;-68
2023/06/08 08:13:37;;;;;;;;;;;;;;;23.01;66.45;100331.22;5425138;32;33620;-65
2023/06/08 08:16:39;;;;;;;;;;;;;;;22.59;68.35;100326.06;5415615;32;34230;-65
2023/06/08 08:19:41;;;;;;;;;;;;;;;22.58;68.19;100332.44;5427735;32;35366;-66
2023/06/08 08:22:43;;;;;;;;;;;;;;;22.52;68.92;100335.66;5408415;32;34384;-65
2023/06/08 08:25:45;;;;;;;;;;;;;;;23.12;66.07;100328.41;5413192;32;34117;-68
2023/06/08 08:28:47;;;;;;;;;;;;;;;22.84;68.10;100330.06;5419951;32;34524;-67
2023/06/08 08:31:50;;;;;;;;;;;;;;;22.66;68.54;100343.28;5407855;32;35355;-69
2023/06/08 08:34:52;;;;;;;;;;;;;;;22.87;67.55;100339.69;5417147;32;35921;-66
2023/06/08 08:37:55;;;;;;;;;;;;;;;23.37;65.76;100331.47;5413146;32;36139;-69
2023/06/08 08:41:02;;;;;;;;;;;;;;;23.21;66.44;100329.38;5424323;32;34100;-68
2023/06/08 08:44:05;;;;;;;;;;;;;;;22.83;67.90;100322.16;5422634;32;34220;-71
2023/06/08 08:47:10;;;;;;;;;;;;;;;23.52;65.12;100324.69;5402612;32;34069;-67
2023/06/08 08:50:16;;;;;;;;;;;;;;;24.35;61.43;100320.34;5425537;32;34298;-68
2023/06/08 08:53:21;;;;;;;;;;;;;;;23.42;64.48;100323.84;5414073;32;34497;-67
2023/06/08 08:56:28;;;;;;;;;;;;;;;25.42;57.68;100317.66;5410835;32;34378;-70
2023/06/08 08:59:45;;;;;;;;;;;;;;;25.49;57.05;100317.84;5413826;32;35786;-66
2023/06/08 09:02:50;;;;;;;;;;;;;;;24.74;59.20;100312.00;5421094;32;34235;-68
2023/06/08 09:05:52;;;;;;;;;;;;;;;24.37;60.92;100312.13;5424275;32;34318;-69
2023/06/08 09:08:57;;;;;;;;;;;;;;;25.62;57.33;100323.66;5412856;32;33934;-70
2023/06/08 09:12:00;;;;;;;;;;;;;;;25.41;58.23;100309.75;5424188;32;34220;-64
2023/06/08 09:15:02;;;;;;;;;;;;;;;26.14;54.54;100307.47;5427520;32;35437;-67
2023/06/08 09:18:14;;;;;;;;;;;;;;;24.91;59.60;100313.00;5413722;32;34334;-68
2023/06/08 09:21:23;;;;;;;;;;;;;;;25.92;55.42;100312.44;5428151;32;34255;-73
2023/06/08 09:24:25;;;;;;;;;;;;;;;27.02;52.94;100293.53;5410188;32;33353;-68
2023/06/08 09:35:04;;;;;;;;;;;;;;;25.39;56.43;100291.91;5416712;32;35134;-62
2023/06/08 09:38:20;;;;;;;;;;;;;;;28.47;47.72;100279.88;5415026;32;35988;-68
2023/06/08 09:41:22;;;;;;;;;;;;;;;27.66;49.21;100272.91;5419941;32;34342;-67
2023/06/08 09:44:25;;;;;;;;;;;;;;;28.64;48.07;100270.63;5424435;32;36517;-67
2023/06/08 09:47:27;;;;;;;;;;;;;;;29.87;44.47;100276.59;5423007;32;36351;-72
2023/06/08 09:50:29;;;;;;;;;;;;;;;30.26;43.55;100261.91;5421632;32;35489;-66
2023/06/08 09:53:31;;;;;;;;;;;;;;;29.62;44.53;100262.50;5422490;32;34350;-69
2023/06/08 09:56:34;;;;;;;;;;;;;;;28.90;46.73;100262.16;5393360;32;36195;-67
2023/06/08 09:59:38;;;;;;;;;;;;;;;27.86;48.82;100262.59;5409593;32;35021;-70
2023/06/08 10:02:42;;;;;;;;;;;;;;;29.21;45.61;100256.66;5415752;32;34452;-66
2023/06/08 10:05:45;;;;;;;;;;;;;;;30.26;43.08;100251.06;5428921;32;34419;-70
2023/06/08 10:08:49;;;;;;;;;;;;;;;29.89;42.31;100247.47;5420675;32;34408;-67
2023/06/08 10:11:51;;;;;;;;;;;;;;;28.94;45.35;100238.31;5416809;32;34456;-67
2023/06/08 10:14:53;;;;;;;;;;;;;;;28.67;45.67;100232.44;5409199;32;34511;-68
2023/06/08 10:17:55;;;;;;;;;;;;;;;29.35;42.75;100223.34;5419260;32;34224;-67
2023/06/08 10:20:59;;;;;;;;;;;;;;;29.70;42.05;100214.72;5428175;32;34347;-65
2023/06/08 10:24:01;;;;;;;;;;;;;;;29.47;41.97;100210.19;5423573;32;34301;-66
2023/06/08 10:27:09;;;;;;;;;;;;;;;31.68;37.90;100200.31;5415625;32;34042;-69
2023/06/08 10:30:12;;;;;;;;;;;;;;;28.30;44.27;100203.44;5414619;32;34259;-68
2023/06/08 10:33:21;;;;;;;;;;;;;;;27.86;46.68;100208.56;5402694;32;34108;-65
2023/06/08 10:36:24;;;;;;;;;;;;;;;26.90;50.60;100210.28;5423412;32;34989;-72
2023/06/08 10:39:26;;;;;;;;;;;;;;;27.64;48.40;100204.75;5409944;32;33849;-72
2023/06/08 10:42:30;;;;;;;;;;;;;;;28.63;44.69;100200.50;5417214;32;34715;-63
2023/06/08 10:45:35;;;;;;;;;;;;;;;27.97;47.23;100200.94;5402830;32;34088;-66
2023/06/08 10:48:37;;;;;;;;;;;;;;;27.36;48.90;100207.03;5421472;32;34330;-69
2023/06/08 10:51:45;;;;;;;;;;;;;;;27.34;49.15;100204.50;5423878;32;35297;-65
2023/06/08 10:54:52;;;;;;;;;;;;;;;26.88;49.97;100209.63;5428425;32;33306;-69
2023/06/08 10:58:02;;;;;;;;;;;;;;;26.29;53.38;100205.34;5423229;32;34360;-69
2023/06/08 11:01:05;;;;;;;;;;;;;;;25.06;61.23;100215.53;5405593;32;34373;-65
2023/06/08 11:04:07;;;;;;;;;;;;;;;23.53;72.79;100211.03;5429399;32;34324;-71
2023/06/08 11:07:15;;;;;;;;;;;;;;;23.06;73.82;100212.88;5410426;32;34205;-68
2023/06/08 11:10:22;;;;;;;;;;;;;;;23.57;75.28;100201.72;5405110;32;35695;-72
2023/06/08 11:13:24;;;;;;;;;;;;;;;23.43;73.25;100192.28;5412319;32;34565;-66
2023/06/08 11:16:26;;;;;;;;;;;;;;;23.59;71.61;100191.66;5404171;32;34317;-67
2023/06/08 11:19:29;;;;;;;;;;;;;;;23.01;74.78;100213.31;5410492;32;34180;-69
2023/06/08 11:22:31;;;;;;;;;;;;;;;23.32;75.32;100213.09;5408193;32;34314;-67
2023/06/08 11:25:34;;;;;;;;;;;;;;;23.35;75.42;100218.16;5422091;32;33256;-66
2023/06/08 11:28:36;;;;;;;;;;;;;;;24.15;70.88;100208.59;5406915;32;34212;-68
2023/06/08 11:31:41;;;;;;;;;;;;;;;25.33;66.48;100211.00;5421803;32;34348;-67
2023/06/08 11:34:49;;;;;;;;;;;;;;;25.51;64.30;100202.87;5423740;32;34261;-65
2023/06/08 11:37:53;;;;;;;;;;;;;;;25.88;62.26;100208.75;5420610;32;33532;-64
2023/06/08 11:40:58;;;;;;;;;;;;;;;24.80;64.09;100207.41;5422445;32;34233;-68
2023/06/08 11:44:00;;;;;;;;;;;;;;;24.46;65.58;100201.91;5424575;32;34209;-64
2023/06/08 11:47:09;;;;;;;;;;;;;;;24.66;60.08;100197.19;5424560;32;34338;-70
2023/06/08 11:50:12;;;;;;;;;;;;;;;26.35;57.73;100194.75;5427283;32;35167;-70
2023/06/08 11:53:16;;;;;;;;;;;;;;;26.53;59.60;100182.97;5422941;32;32996;-76
2023/06/08 11:56:18;;;;;;;;;;;;;;;26.82;56.61;100172.53;5419306;32;34470;-67
2023/06/08 11:59:23;;;;;;;;;;;;;;;27.23;55.12;100165.25;5424919;32;35846;-71
2023/06/08 12:02:25;;;;;;;;;;;;;;;25.54;58.92;100163.00;5427182;32;33934;-70
2023/06/08 12:05:29;;;;;;;;;;;;;;;26.54;58.19;100157.75;5428719;32;34431;-63
2023/06/08 12:08:32;;;;;;;;;;;;;;;25.84;59.69;100142.81;5427177;32;34298;-67
2023/06/08 12:11:36;;;;;;;;;;;;;;;25.77;60.71;100155.22;5422273;32;34433;-64
2023/06/08 12:14:47;;;;;;;;;;;;;;;25.32;62.69;100156.38;5424305;32;34223;-70
2023/06/08 12:17:49;;;;;;;;;;;;;;;25.57;62.46;100151.09;5429551;32;35368;-61
2023/06/08 12:20:51;;;;;;;;;;;;;;;25.96;59.67;100153.28;5423902;32;34288;-66
2023/06/08 12:23:53;;;;;;;;;;;;;;;26.26;57.48;100163.41;5426782;32;34201;-72
2023/06/08 12:26:55;;;;;;;;;;;;;;;25.98;57.33;100156.63;5422684;32;35404;-67
2023/06/08 12:29:58;;;;;;;;;;;;;;;26.11;58.03;100155.13;5427291;32;34517;-70
2023/06/08 12:33:00;;;;;;;;;;;;;;;26.38;58.49;100151.28;5429119;32;34279;-69
2023/06/08 12:36:03;;;;;;;;;;;;;;;25.61;56.46;100147.91;5423923;32;37842;-66
2023/06/08 12:39:05;;;;;;;;;;;;;;;26.38;57.20;100145.91;5417784;32;34242;-69
2023/06/08 12:42:07;;;;;;;;;;;;;;;26.79;56.78;100148.59;5416876;32;35428;-69
2023/06/08 12:45:09;;;;;;;;;;;;;;;25.66;56.07;100150.09;5423618;32;36808;-68
2023/06/08 12:48:13;;;;;;;;;;;;;;;25.23;57.42;100151.09;5419320;32;34904;-67
2023/06/08 12:51:15;;;;;;;;;;;;;;;25.13;58.57;100153.91;5422575;32;34383;-65
2023/06/08 12:54:17;;;;;;;;;;;;;;;24.95;59.69;100155.78;5425075;32;34434;-68
2023/06/08 12:57:19;;;;;;;;;;;;;;;25.31;57.16;100132.28;5416930;32;34253;-68
2023/06/08 13:00:22;;;;;;;;;;;;;;;25.50;58.04;100142.81;5420572;32;34844;-66
2023/06/08 13:03:24;;;;;;;;;;;;;;;26.03;57.06;100133.59;5419817;32;35398;-67
2023/06/08 13:06:27;;;;;;;;;;;;;;;25.16;59.04;100132.06;5427821;32;34700;-72
2023/06/08 13:09:29;;;;;;;;;;;;;;;25.88;59.17;100136.06;5419063;32;35595;-68
2023/06/08 13:12:31;;;;;;;;;;;;;;;24.37;61.80;100146.44;5417649;32;34235;-72
2023/06/08 13:15:33;;;;;;;;;;;;;;;25.08;59.00;100143.62;5413451;32;34230;-68
2023/06/08 13:18:35;;;;;;;;;;;;;;;25.50;58.18;100145.50;5408087;32;34869;-72
2023/06/08 13:21:38;;;;;;;;;;;;;;;25.84;56.66;100145.50;5426195;32;34876;-73
2023/06/08 13:24:41;;;;;;;;;;;;;;;26.50;53.75;100151.00;5404749;32;34248;-68
2023/06/08 13:27:46;;;;;;;;;;;;;;;25.97;56.92;100149.56;5406276;32;35710;-68
2023/06/08 13:30:50;;;;;;;;;;;;;;;25.79;55.46;100150.53;5406702;32;34865;-72
2023/06/08 13:33:52;;;;;;;;;;;;;;;25.10;59.02;100152.37;5400529;32;34582;-67
2023/06/08 13:36:54;;;;;;;;;;;;;;;25.93;56.21;100149.88;5406819;32;35534;-73
2023/06/08 13:39:57;;;;;;;;;;;;;;;25.79;58.26;100150.53;5390537;32;35380;-72
2023/06/08 13:42:59;;;;;;;;;;;;;;;25.50;55.76;100140.12;5405015;32;34196;-72
2023/06/08 13:46:03;;;;;;;;;;;;;;;25.95;54.63;100138.09;5391037;32;34926;-70
2023/06/08 13:49:05;;;;;;;;;;;;;;;26.48;53.16;100140.41;5408743;32;34421;-70
2023/06/08 13:52:10;;;;;;;;;;;;;;;25.41;56.82;100140.25;5384317;32;35318;-68
2023/06/08 13:55:12;;;;;;;;;;;;;;;24.67;56.79;100139.81;5400118;32;34226;-67
2023/06/08 13:58:15;;;;;;;;;;;;;;;24.47;59.25;100132.91;5420957;32;35524;-68
2023/06/08 14:01:17;;;;;;;;;;;;;;;25.69;54.28;100113.94;5416290;32;35225;-67
2023/06/08 14:04:19;;;;;;;;;;;;;;;26.29;50.61;100116.44;5423358;32;35078;-72
2023/06/08 14:07:21;;;;;;;;;;;;;;;26.55;49.70;100111.75;5421780;32;34993;-68
2023/06/08 14:10:23;;;;;;;;;;;;;;;26.80;49.37;100109.03;5427641;32;34153;-67
2023/06/08 14:13:25;;;;;;;;;;;;;;;26.88;50.08;100101.75;5425879;32;34750;-72
2023/06/08 14:16:28;;;;;;;;;;;;;;;27.32;47.31;100093.22;5427672;32;35777;-69
2023/06/08 14:19:30;;;;;;;;;;;;;;;26.49;48.61;100092.72;5428183;32;34317;-69
2023/06/08 14:22:32;;;;;;;;;;;;;;;27.16;47.73;100077.94;5426285;32;34869;-67
2023/06/08 14:25:36;;;;;;;;;;;;;;;25.74;51.50;100090.09;5407184;32;34353;-72
2023/06/08 14:28:39;;;;;;;;;;;;;;;26.65;49.73;100079.22;5422676;32;35590;-72
2023/06/08 14:31:41;;;;;;;;;;;;;;;27.11;48.18;100080.31;5423985;32;35024;-73
2023/06/08 14:34:43;;;;;;;;;;;;;;;26.75;48.27;100058.31;5407187;32;34745;-70
2023/06/08 14:37:45;;;;;;;;;;;;;;;27.46;47.92;100065.50;5420027;32;34825;-67
2023/06/08 14:40:47;;;;;;;;;;;;;;;27.25;46.16;100066.09;5423900;32;35439;-71
2023/06/08 14:43:51;;;;;;;;;;;;;;;27.16;48.32;100071.69;5421688;32;34283;-73
2023/06/08 14:46:53;;;;;;;;;;;;;;;27.24;49.30;100074.34;5428161;32;34898;-72
2023/06/08 14:49:55;;;;;;;;;;;;;;;28.92;45.16;100059.12;5426174;32;35857;-69
2023/06/08 14:52:57;;;;;;;;;;;;;;;27.94;47.70;100071.63;5413764;32;34417;-68
2023/06/08 14:55:59;;;;;;;;;;;;;;;26.62;51.57;100066.94;5428162;32;34884;-68
2023/06/08 14:59:01;;;;;;;;;;;;;;;27.88;48.16;100061.53;5406920;32;35318;-71
2023/06/08 15:02:03;;;;;;;;;;;;;;;27.72;47.07;100058.97;5430742;32;34046;-68
2023/06/08 15:05:05;;;;;;;;;;;;;;;27.73;46.69;100052.53;5427384;32;34132;-69
2023/06/08 15:08:08;;;;;;;;;;;;;;;28.04;46.08;100060.59;5426142;32;34706;-67
2023/06/08 15:11:10;;;;;;;;;;;;;;;27.76;46.82;100046.78;5423772;32;34433;-73
2023/06/08 15:14:12;;;;;;;;;;;;;;;27.76;46.74;100049.50;5429098;32;34853;-73
2023/06/08 15:17:14;;;;;;;;;;;;;;;26.95;49.17;100043.41;5428021;32;35657;-68
2023/06/08 15:20:16;;;;;;;;;;;;;;;26.77;49.61;100042.81;5430477;32;35741;-73
2023/06/08 15:23:18;;;;;;;;;;;;;;;26.97;48.39;100036.00;5427747;32;35053;-72
2023/06/08 15:26:20;;;;;;;;;;;;;;;27.14;47.75;100031.41;5425400;32;34632;-72
2023/06/08 15:29:22;;;;;;;;;;;;;;;26.97;48.64;100041.38;5416799;32;34321;-73
2023/06/08 15:32:24;;;;;;;;;;;;;;;26.54;50.39;100036.47;5426017;32;36186;-68
2023/06/08 15:35:27;;;;;;;;;;;;;;;25.75;51.78;100040.66;5429040;32;34720;-72
2023/06/08 15:38:29;;;;;;;;;;;;;;;26.13;51.49;100044.53;5414214;32;35070;-73
2023/06/08 15:41:31;;;;;;;;;;;;;;;26.36;50.86;100044.72;5425081;32;34975;-71
2023/06/08 15:44:33;;;;;;;;;;;;;;;27.27;47.83;100047.03;5429236;32;34981;-67
2023/06/08 15:47:34;;;;;;;;;;;;;;;26.28;50.80;100050.13;5425865;32;34689;-72